Flight Track Log - Related Links

Times and Time Zones

All times are in EDT time to prevent confusion due to time zone crossing. See the JIA2439 flight status page for this flight to view local times or setup timezone preferences in your user account.

Time Position Orientation Groundspeed Altitude Reporting Facility
EDT Latitude Longitude Course Direction KTS MPH feet Rate Location/Type
Sun 08:06:46 PM 35.1992 -80.9353 246° West 143 165 1,400  Level Atlanta Center
Sun 08:07:41 PM 35.1533 -80.9344 179° South 193 222 3,100 2,092 Climbing Atlanta Center
Sun 08:08:35 PM 35.1000 -80.9747 212° Southwest 259 298 5,200 2,504 Climbing Atlanta Center
Sun 08:09:00 PM 35.2667 -81.1997 270° West  Level FlightAware Approximate
Sun 08:09:36 PM 35.0919 -81.0689 264° West 292 336 7,900  Level Atlanta Center
Sun 08:10:00 PM 35.1757 -81.2557 199° South  Level FlightAware Approximate
Sun 08:10:37 PM 35.0878 -81.1631 267° West 279 321 10,800  Level Atlanta Center
Sun 08:11:00 PM 35.0784 -81.3007 251° West  Level FlightAware Approximate
Sun 08:11:51 PM 35.0861 -81.2694 269° West 298 343 13,400  Level Atlanta Center
Sun 08:12:00 PM 35.0402 -81.4270 246° West  Level FlightAware Approximate
Sun 08:12:51 PM 35.0633 -81.3667 254° West 298 343 14,900  Level Atlanta Center
Sun 08:13:51 PM 35.0300 -81.4769 250° West 305 351 16,600 1,700 Climbing Atlanta Center
Sun 08:14:51 PM 34.9989 -81.5869 251° West 327 376 18,300 1,650 Climbing Atlanta Center
Sun 08:15:51 PM 34.9656 -81.6944 249° West 338 389 19,900 1,600 Climbing Atlanta Center
Sun 08:16:51 PM 34.9300 -81.8042 248° West 351 404 21,500 1,500 Climbing Atlanta Center
Sun 08:17:51 PM 34.8775 -81.9019 237° Southwest 351 404 22,900 1,300 Climbing Atlanta Center
Sun 08:18:51 PM 34.8311 -81.9839 235° Southwest 345 397 24,100 1,300 Climbing Atlanta Center
Sun 08:19:51 PM 34.7722 -82.0942 237° Southwest 351 404 25,500 1,050 Climbing Atlanta Center
Sun 08:20:51 PM 34.7153 -82.1892 234° Southwest 357 411 26,200 700 Climbing Atlanta Center
Sun 08:21:51 PM 34.6606 -82.2886 236° Southwest 357 411 26,900 700 Climbing Atlanta Center
Sun 08:22:51 PM 34.6014 -82.3908 235° Southwest 362 417 27,600 700 Climbing Atlanta Center
Sun 08:23:51 PM 34.5422 -82.4906 234° Southwest 367 422 28,300 700 Climbing Atlanta Center
Sun 08:24:51 PM 34.4850 -82.5922 236° Southwest 367 422 29,000 700 Climbing Atlanta Center
Sun 08:25:51 PM 34.4275 -82.6939 236° Southwest 367 422 29,700 500 Climbing Atlanta Center
Sun 08:26:51 PM 34.3681 -82.7956 235° Southwest 372 428 30,000 300 Climbing Atlanta Center
Sun 08:27:51 PM 34.3086 -82.8997 235° Southwest 377 434 30,300 300 Climbing Atlanta Center
Sun 08:28:51 PM 34.2469 -83.0033 234° Southwest 383 441 30,600 300 Climbing Atlanta Center
Sun 08:29:51 PM 34.1853 -83.1072 234° Southwest 383 441 30,900 300 Climbing Atlanta Center
Sun 08:30:51 PM 34.1256 -83.2131 236° Southwest 383 441 31,200 350 Climbing Atlanta Center
Sun 08:31:51 PM 34.0614 -83.3192 234° Southwest 390 449 31,600 350 Climbing Atlanta Center
Sun 08:32:51 PM 33.9994 -83.4225 234° Southwest 390 449 31,900 200 Climbing Atlanta Center
Sun 08:33:51 PM 33.9456 -83.5156 235° Southwest 385 443 32,000 50 Climbing Atlanta Center
Sun 08:34:51 PM 33.8811 -83.6208 234° Southwest 391 450 32,000  Level Atlanta Center
Sun 08:35:51 PM 33.8211 -83.7264 236° Southwest 391 450 32,000  Level Atlanta Center
Sun 08:36:51 PM 33.7628 -83.8339 237° Southwest 391 450 32,000  Level Atlanta Center
Sun 08:37:51 PM 33.7044 -83.9389 236° Southwest 391 450 32,000  Level Atlanta Center
Sun 08:38:51 PM 33.6397 -84.0539 236° Southwest 386 444 32,000 -200 Level Atlanta Center
Sun 08:39:51 PM 33.5814 -84.1611 237° Southwest 386 444 31,600 -450 Descending Atlanta Center
Sun 08:40:51 PM 33.5228 -84.2681 237° Southwest 391 450 31,100 -650 Descending Atlanta Center
Sun 08:41:51 PM 33.4597 -84.3725 234° Southwest 391 450 30,300 -1,000 Descending Atlanta Center
Sun 08:42:51 PM 33.4031 -84.4817 238° Southwest 389 448 29,100 -1,800 Descending Atlanta Center
Sun 08:43:51 PM 33.3278 -84.5583 220° Southwest 382 440 26,700 -1,550 Descending Atlanta Center
Sun 08:44:51 PM 33.2689 -84.6425 230° Southwest 345 397 26,000 -350 Descending Atlanta Center
Sun 08:45:51 PM 33.2225 -84.7242 236° Southwest 337 388 26,000  Level Atlanta Center
Sun 08:46:51 PM 33.1697 -84.8231 237° Southwest 349 402 26,000  Level Atlanta Center
Sun 08:47:51 PM 33.1169 -84.9217 237° Southwest 349 402 26,000 -150 Level Atlanta Center
Sun 08:48:51 PM 33.0536 -85.0028 227° Southwest 343 395 25,700 -700 Descending Atlanta Center
Sun 08:49:51 PM 32.9861 -85.0914 228° Southwest 357 411 24,600 -1,100 Descending Atlanta Center
Sun 08:50:51 PM 32.9144 -85.1747 224° Southwest 362 417 23,500 -1,100 Descending Atlanta Center
Sun 08:51:51 PM 32.8508 -85.2778 234° Southwest 374 430 22,400 -1,100 Descending Atlanta Center
Sun 08:52:51 PM 32.7997 -85.3856 241° Southwest 384 442 21,300 -1,200 Descending Atlanta Center
Sun 08:53:51 PM 32.7442 -85.4936 239° Southwest 384 442 20,000 -1,650 Descending Atlanta Center
Sun 08:54:51 PM 32.6947 -85.5964 240° Southwest 378 435 18,000 -1,900 Descending Atlanta Center
Sun 08:55:51 PM 32.6475 -85.6992 241° Southwest 368 423 16,200 -1,850 Descending Atlanta Center
Sun 08:56:51 PM 32.5939 -85.8042 239° Southwest 368 423 14,300 -1,800 Descending Atlanta Center
Sun 08:57:51 PM 32.5444 -85.9067 240° Southwest 368 423 12,600 -1,950 Descending Atlanta Center
Sun 08:58:51 PM 32.4950 -86.0017 238° Southwest 356 410 10,400 -2,433 Descending Atlanta Center
Sun 09:00:51 PM 32.4006 -86.1494 233° Southwest 311 358 5,300 -2,367 Descending Atlanta Center
Sun 09:01:51 PM 32.3214 -86.1403 174° South 259 298 3,300 -1,450 Descending Atlanta Center
Sun 09:02:51 PM 32.2911 -86.2036 241° Southwest 224 258 2,400 -750 Descending Atlanta Center
Sun 09:03:51 PM 32.2900 -86.2697 269° West 192 221 1,800 -600 Descending Atlanta Center

Login

Don't have an account? Register now (free) for customized features, flight alerts, and more!